Time;durP1;ratioP1;P1;durP2;ratioP2;P2;SDS_P1;SDS_P2;PMS_P1;PMS_P2;Temp;Humidity;BMP_temperature;BMP_pressure;BME280_temperature;BME280_humidity;BME280_pressure;Samples;Min_cycle;Max_cycle;Signal;HPM_P1;HPM_P2
2022/11/03 00:02:10;;;;;;;1.63;0.60;;;23.60;70.70;;;;;;5075108;28;20203;-72
2022/11/03 00:04:37;;;;;;;0.63;0.43;;;23.40;69.50;;;;;;5074961;28;20184;-72
2022/11/03 00:07:05;;;;;;;1.83;0.73;;;22.80;69.40;;;;;;5074264;28;20216;-71
2022/11/03 00:09:36;;;;;;;1.10;0.50;;;22.30;80.50;;;;;;5057548;28;20189;-72
2022/11/03 00:12:04;;;;;;;2.53;0.70;;;22.40;75.40;;;;;;5063009;28;20276;-72
2022/11/03 00:14:32;;;;;;;1.53;0.40;;;22.40;75.50;;;;;;5089783;28;20188;-72
2022/11/03 00:16:59;;;;;;;1.33;0.50;;;22.90;72.20;;;;;;5074900;28;20193;-72
2022/11/03 00:19:27;;;;;;;1.17;0.70;;;23.30;72.30;;;;;;5074859;28;20629;-72
2022/11/03 00:21:58;;;;;;;1.60;0.40;;;23.20;71.50;;;;;;5074354;28;20295;-73
2022/11/03 00:24:25;;;;;;;0.83;0.50;;;23.80;69.70;;;;;;5074455;28;20180;-72
2022/11/03 00:26:53;;;;;;;2.10;0.60;;;23.90;61.80;;;;;;5089911;28;20219;-72
2022/11/03 00:29:21;;;;;;;0.73;0.40;;;24.10;66.20;;;;;;5074661;28;20210;-73
2022/11/03 00:31:49;;;;;;;2.03;0.63;;;23.60;61.10;;;;;;5074450;28;20174;-72
2022/11/03 00:34:17;;;;;;;0.93;0.40;;;23.50;58.00;;;;;;5073830;28;20187;-72
2022/11/03 00:36:45;;;;;;;2.87;0.67;;;23.50;61.40;;;;;;5073942;28;20183;-72
2022/11/03 00:39:13;;;;;;;0.40;0.40;;;23.70;63.50;;;;;;5058698;28;20184;-72
2022/11/03 00:41:41;;;;;;;1.23;0.40;;;24.10;61.30;;;;;;5069207;28;20643;-72
2022/11/03 00:44:09;;;;;;;3.87;0.67;;;24.70;60.90;;;;;;5057178;28;20744;-72
2022/11/03 00:46:38;;;;;;;0.40;0.40;;;25.30;60.70;;;;;;5053426;28;20220;-72
2022/11/03 00:49:06;;;;;;;1.13;0.33;;;25.00;56.40;;;;;;5050832;28;20618;-72
2022/11/03 00:51:34;;;;;;;1.23;0.47;;;24.40;52.90;;;;;;5065773;28;20183;-72
2022/11/03 00:54:04;;;;;;;1.20;0.43;;;23.70;54.30;;;;;;5073809;28;20640;-72
2022/11/03 00:56:34;;;;;;;3.80;0.50;;;24.20;55.60;;;;;;5073948;28;20238;-73
2022/11/03 00:59:03;;;;;;;0.87;0.40;;;24.60;57.40;;;;;;5073801;28;20268;-72
2022/11/03 01:01:34;;;;;;;5.87;0.77;;;24.40;57.50;;;;;;5072196;28;20594;-72
2022/11/03 01:06:50;;;;;;;3.60;0.50;;;23.60;53.70;;;;;;5069128;28;20213;-71
2022/11/03 01:09:23;;;;;;;2.33;0.57;;;24.20;57.10;;;;;;5093636;28;20195;-72
2022/11/03 01:12:12;;;;;;;2.77;0.77;;;24.60;58.90;;;;;;5096129;28;20183;-73
2022/11/03 01:14:51;;;;;;;0.80;0.40;;;24.80;53.00;;;;;;5078487;28;20192;-72
2022/11/03 01:17:22;;;;;;;2.97;0.70;;;24.60;55.20;;;;;;5085973;28;20252;-72
2022/11/03 01:19:51;;;;;;;0.97;0.53;;;25.20;55.60;;;;;;5089894;28;20544;-72
2022/11/03 01:22:19;;;;;;;2.27;0.40;;;25.80;48.30;;;;;;5103854;28;20187;-72
2022/11/03 01:24:47;;;;;;;5.73;0.80;;;25.00;50.90;;;;;;5075535;28;20179;-72
2022/11/03 01:27:21;;;;;;;2.27;0.43;;;24.60;53.30;;;;;;5075050;28;20302;-72
2022/11/03 01:29:49;;;;;;;1.23;0.50;;;25.20;53.10;;;;;;5073444;28;20168;-72
2022/11/03 01:32:17;;;;;;;1.60;0.40;;;25.10;55.70;;;;;;5070717;28;20180;-72
2022/11/03 01:34:45;;;;;;;1.27;0.60;;;25.30;54.60;;;;;;5061852;28;20599;-71
2022/11/03 01:37:14;;;;;;;1.83;0.50;;;25.40;48.10;;;;;;5074337;28;20193;-71
2022/11/03 01:39:42;;;;;;;3.67;0.30;;;25.50;46.60;;;;;;5074187;28;20172;-71
2022/11/03 01:42:13;;;;;;;1.80;0.50;;;25.30;43.10;;;;;;5074005;28;20211;-71
2022/11/03 01:44:47;;;;;;;0.53;0.30;;;25.20;47.10;;;;;;5074063;28;20182;-71
2022/11/03 01:47:29;;;;;;;0.70;0.37;;;25.50;47.40;;;;;;5074137;28;20228;-71
2022/11/03 01:50:07;;;;;;;1.33;0.40;;;25.00;47.50;;;;;;5074742;28;20172;-71
2022/11/03 01:52:41;;;;;;;0.83;0.50;;;23.70;48.00;;;;;;5073659;28;20180;-70
2022/11/03 01:55:19;;;;;;;2.57;0.53;;;24.30;46.10;;;;;;5072180;28;20264;-71
2022/11/03 01:57:57;;;;;;;1.47;0.40;;;24.90;52.90;;;;;;5073708;28;20246;-71
2022/11/03 02:00:25;;;;;;;3.00;0.50;;;25.60;45.00;;;;;;5073121;28;20296;-71
2022/11/03 02:02:53;;;;;;;1.70;0.50;;;25.40;49.90;;;;;;5074059;28;20180;-71
2022/11/03 02:05:23;;;;;;;1.07;0.50;;;25.70;46.80;;;;;;5073890;28;20673;-71
2022/11/03 02:07:57;;;;;;;0.30;0.30;;;25.40;53.50;;;;;;5088923;28;20645;-71
2022/11/03 02:10:26;;;;;;;0.77;0.50;;;25.20;44.30;;;;;;5089511;28;20179;-71
2022/11/03 02:12:53;;;;;;;0.73;0.40;;;25.20;47.30;;;;;;5073919;28;20211;-70
2022/11/03 02:15:22;;;;;;;0.90;0.40;;;25.40;48.60;;;;;;5072585;28;20198;-70
2022/11/03 02:17:53;;;;;;;1.10;0.50;;;25.30;46.90;;;;;;5054814;28;20186;-67
2022/11/03 02:20:24;;;;;;;1.33;0.40;;;24.80;43.00;;;;;;5068858;28;20215;-67
2022/11/03 02:23:01;;;;;;;1.07;0.40;;;25.20;47.40;;;;;;5053716;28;20172;-67
2022/11/03 02:25:54;;;;;;;2.97;0.40;;;25.50;43.00;;;;;;5053402;28;20680;-67
2022/11/03 02:28:28;;;;;;;1.17;0.40;;;26.10;45.80;;;;;;5053418;28;20180;-68
2022/11/03 02:31:05;;;;;;;1.07;0.40;;;25.90;40.30;;;;;;5053169;28;20177;-67
2022/11/03 02:33:43;;;;;;;1.40;0.30;;;25.90;44.10;;;;;;5053853;28;20177;-68
2022/11/03 02:36:27;;;;;;;5.93;0.60;;;26.00;43.80;;;;;;5052715;28;20184;-68
2022/11/03 02:39:30;;;;;;;1.13;0.40;;;25.80;45.10;;;;;;5052023;28;20172;-67
2022/11/03 02:42:00;;;;;;;2.30;0.40;;;25.40;43.30;;;;;;5031373;28;20263;-67
2022/11/03 02:44:29;;;;;;;3.40;0.60;;;24.90;45.00;;;;;;5032880;28;20584;-68
2022/11/03 02:47:00;;;;;;;0.70;0.37;;;24.30;44.00;;;;;;5033053;28;20240;-67
2022/11/03 02:49:28;;;;;;;1.97;0.60;;;24.20;45.60;;;;;;5033154;28;20177;-68
2022/11/03 02:52:04;;;;;;;3.60;0.60;;;24.30;45.90;;;;;;5048875;28;20174;-71
2022/11/03 02:54:44;;;;;;;2.10;0.57;;;24.30;47.70;;;;;;5033177;28;20180;-68
2022/11/03 02:57:28;;;;;;;2.00;0.50;;;24.20;46.80;;;;;;5033442;28;20226;-67
2022/11/03 03:00:05;;;;;;;1.77;0.40;;;24.40;46.00;;;;;;5031796;28;20642;-68
2022/11/03 03:03:04;;;;;;;0.70;0.40;;;24.50;46.40;;;;;;5033209;28;20188;-69
2022/11/03 03:05:35;;;;;;;0.30;0.30;;;24.10;41.90;;;;;;5032900;28;20310;-67
2022/11/03 03:08:07;;;;;;;1.30;0.50;;;23.80;44.00;;;;;;5032855;28;20177;-67
2022/11/03 03:10:40;;;;;;;1.20;0.40;;;23.90;46.20;;;;;;5033028;28;20658;-68
2022/11/03 03:13:09;;;;;;;0.60;0.43;;;23.70;48.40;;;;;;5034590;28;20295;-67
2022/11/03 03:15:42;;;;;;;2.00;0.37;;;23.30;51.70;;;;;;5037141;28;20239;-67
2022/11/03 03:18:36;;;;;;;1.90;0.60;;;23.10;54.70;;;;;;5037428;28;20182;-67
2022/11/03 03:21:36;;;;;;;0.30;0.30;;;23.10;59.10;;;;;;5037332;28;20177;-69
2022/11/03 03:24:18;;;;;;;0.97;0.43;;;23.20;57.40;;;;;;5032031;28;20227;-71
2022/11/03 03:26:49;;;;;;;2.53;0.30;;;23.10;64.10;;;;;;5036811;28;20303;-68
2022/11/03 03:29:22;;;;;;;2.43;0.53;;;23.10;70.80;;;;;;5037021;28;20600;-67
2022/11/03 03:31:55;;;;;;;0.60;0.50;;;22.90;72.70;;;;;;5036839;28;20187;-69
2022/11/03 03:34:26;;;;;;;0.40;0.30;;;23.00;71.60;;;;;;5037076;28;20208;-67
2022/11/03 03:36:58;;;;;;;2.37;0.50;;;23.30;67.40;;;;;;5036801;28;20181;-67
2022/11/03 03:39:29;;;;;;;3.10;0.40;;;23.60;63.10;;;;;;5037010;28;20196;-72
2022/11/03 03:42:00;;;;;;;2.33;0.40;;;23.40;60.40;;;;;;5038290;28;20521;-68
2022/11/03 03:44:29;;;;;;;2.00;0.50;;;23.10;69.20;;;;;;5038676;28;20243;-68
2022/11/03 03:47:07;;;;;;;1.50;0.63;;;22.60;76.10;;;;;;5071157;28;20532;-68
2022/11/03 03:49:34;;;;;;;1.60;0.50;;;22.50;80.00;;;;;;5039159;28;20610;-68
2022/11/03 03:52:03;;;;;;;1.33;0.53;;;22.30;80.40;;;;;;5038835;28;20631;-68
2022/11/03 03:54:31;;;;;;;0.67;0.40;;;21.90;80.50;;;;;;5038661;28;20194;-68
2022/11/03 03:57:06;;;;;;;0.60;0.40;;;21.90;79.30;;;;;;5037144;28;20236;-69
2022/11/03 03:59:34;;;;;;;2.53;0.63;;;21.50;80.80;;;;;;5038066;28;20188;-71
2022/11/03 04:02:02;;;;;;;0.50;0.50;;;21.90;86.90;;;;;;5037545;28;20197;-68
2022/11/03 04:04:30;;;;;;;1.50;0.60;;;21.90;84.80;;;;;;5038794;28;20521;-73
2022/11/03 04:09:43;;;;;;;2.10;0.50;;;22.70;83.20;;;;;;5037653;28;20528;-72
2022/11/03 04:23:17;;;;;;;1.60;0.43;;;23.40;72.60;;;;;;5038203;28;20220;-70
2022/11/03 04:25:52;;;;;;;4.13;0.60;;;22.90;72.00;;;;;;5038195;28;20274;-72
2022/11/03 04:28:20;;;;;;;0.63;0.37;;;22.10;80.20;;;;;;5054004;28;20181;-70
2022/11/03 04:30:55;;;;;;;1.17;0.50;;;22.30;88.50;;;;;;5038275;28;20168;-71
2022/11/03 04:33:23;;;;;;;0.93;0.53;;;22.90;79.60;;;;;;5038917;28;20581;-71
2022/11/03 04:35:54;;;;;;;0.80;0.40;;;23.30;77.60;;;;;;5038168;28;20173;-69
2022/11/03 04:38:25;;;;;;;1.30;0.40;;;23.30;73.60;;;;;;5053610;28;20177;-72
2022/11/03 04:40:57;;;;;;;1.27;0.40;;;23.60;82.00;;;;;;5037738;28;20188;-71
2022/11/03 04:43:45;;;;;;;1.17;0.40;;;23.90;73.10;;;;;;5037671;28;20177;-68
2022/11/03 04:46:28;;;;;;;2.43;0.60;;;22.90;78.40;;;;;;5075567;28;20215;-68
2022/11/03 04:49:00;;;;;;;1.77;0.60;;;22.30;76.30;;;;;;5075997;28;20184;-69
2022/11/03 04:51:32;;;;;;;2.87;0.90;;;21.80;83.70;;;;;;5077587;28;20176;-68
2022/11/03 04:54:06;;;;;;;1.30;0.57;;;21.50;88.70;;;;;;5074741;28;20268;-69
2022/11/03 04:56:33;;;;;;;1.03;0.70;;;21.40;92.80;;;;;;5060686;28;20609;-71
2022/11/03 04:59:02;;;;;;;0.90;0.70;;;21.60;89.70;;;;;;5090181;28;20225;-71
2022/11/03 05:01:31;;;;;;;2.43;0.67;;;21.50;89.90;;;;;;5071352;28;20228;-70
2022/11/03 05:03:58;;;;;;;1.10;0.60;;;21.50;89.30;;;;;;5054542;28;20211;-71
2022/11/03 05:06:30;;;;;;;3.37;0.80;;;22.00;96.00;;;;;;5070431;28;20254;-71
2022/11/03 05:09:15;;;;;;;3.70;0.60;;;22.60;87.70;;;;;;5078345;28;20160;-71
2022/11/03 05:11:48;;;;;;;2.50;0.60;;;22.90;83.10;;;;;;5075674;28;20665;-70
2022/11/03 05:14:25;;;;;;;3.80;0.50;;;23.20;91.00;;;;;;5091003;28;20276;-70
2022/11/03 05:16:55;;;;;;;1.80;0.50;;;23.70;88.80;;;;;;5076000;28;20207;-70
2022/11/03 05:19:37;;;;;;;0.60;0.40;;;23.90;78.80;;;;;;5071286;28;20227;-70
2022/11/03 05:22:12;;;;;;;0.93;0.50;;;24.10;71.70;;;;;;5058282;28;20219;-69
2022/11/03 05:24:40;;;;;;;2.70;0.70;;;23.90;75.50;;;;;;5056731;28;20617;-69
2022/11/03 05:27:18;;;;;;;1.37;0.30;;;23.80;76.60;;;;;;5067489;28;20228;-70
2022/11/03 05:29:46;;;;;;;1.00;0.53;;;23.80;85.00;;;;;;5056033;28;20267;-70
2022/11/03 05:32:24;;;;;;;1.33;0.50;;;23.90;75.00;;;;;;5055730;28;20212;-72
2022/11/03 05:34:57;;;;;;;1.50;0.57;;;23.90;80.30;;;;;;5059668;28;20187;-70
2022/11/03 05:37:27;;;;;;;0.63;0.30;;;24.20;72.40;;;;;;5053418;28;20189;-71
2022/11/03 05:40:17;;;;;;;1.10;0.50;;;24.60;84.00;;;;;;5040850;28;20181;-70
2022/11/03 05:42:50;;;;;;;2.03;0.47;;;24.30;72.80;;;;;;5066493;28;20207;-70
2022/11/03 05:45:22;;;;;;;3.17;0.43;;;24.10;77.70;;;;;;5091432;28;20230;-70
2022/11/03 05:47:53;;;;;;;1.77;0.47;;;23.90;82.50;;;;;;5076453;28;20175;-70
2022/11/03 05:50:30;;;;;;;4.27;0.87;;;23.40;84.30;;;;;;5091877;28;20184;-70
2022/11/03 05:53:25;;;;;;;1.20;0.70;;;22.70;91.20;;;;;;5076337;28;20532;-70
2022/11/03 05:55:55;;;;;;;9.17;0.87;;;22.30;96.80;;;;;;5092224;28;20214;-70
2022/11/03 05:58:38;;;;;;;5.20;0.60;;;22.60;99.90;;;;;;5075788;28;20184;-71
2022/11/03 06:01:15;;;;;;;5.57;0.83;;;22.40;99.90;;;;;;5091617;28;20352;-69
2022/11/03 06:03:44;;;;;;;4.03;0.83;;;22.00;99.90;;;;;;5075011;28;20187;-71
2022/11/03 06:06:27;;;;;;;7.73;1.30;;;21.40;99.90;;;;;;5073938;28;20302;-70
2022/11/03 06:08:56;;;;;;;7.30;1.37;;;21.20;99.90;;;;;;5057625;28;20297;-69
2022/11/03 06:11:36;;;;;;;4.07;0.97;;;20.70;99.90;;;;;;5054659;28;20176;-68
2022/11/03 06:14:16;;;;;;;10.87;1.30;;;20.40;99.90;;;;;;5055185;28;20678;-68
2022/11/03 06:16:52;;;;;;;3.10;0.80;;;20.20;99.90;;;;;;5054796;28;20176;-70
2022/11/03 06:19:26;;;;;;;8.10;1.23;;;20.10;99.90;;;;;;5054874;28;20175;-70
2022/11/03 06:21:57;;;;;;;6.40;1.07;;;20.20;99.90;;;;;;5053650;28;20185;-70
2022/11/03 06:24:30;;;;;;;3.93;0.90;;;20.60;99.90;;;;;;5071702;28;20215;-70
2022/11/03 06:26:58;;;;;;;8.23;1.10;;;20.90;99.90;;;;;;5075857;28;20217;-70
2022/11/03 06:29:30;;;;;;;2.77;0.70;;;20.90;99.90;;;;;;5058735;28;20206;-70
2022/11/03 06:32:08;;;;;;;7.83;1.40;;;20.80;99.90;;;;;;5058876;28;20654;-70
2022/11/03 06:34:44;;;;;;;4.40;0.83;;;21.10;99.90;;;;;;5066540;28;20233;-72
2022/11/03 06:37:20;;;;;;;8.30;1.43;;;20.90;99.90;;;;;;5074533;28;20273;-71
2022/11/03 06:39:50;;;;;;;6.17;1.43;;;20.70;99.90;;;;;;5073643;28;20179;-71
2022/11/03 06:42:21;;;;;;;7.97;1.20;;;20.40;99.90;;;;;;5073800;28;20256;-71
2022/11/03 06:44:50;;;;;;;6.77;1.30;;;20.00;99.90;;;;;;5073457;28;20283;-71
2022/11/03 06:47:27;;;;;;;5.17;1.37;;;20.00;99.90;;;;;;5077296;28;20184;-71
2022/11/03 06:49:59;;;;;;;5.43;1.03;;;19.80;99.90;;;;;;5073334;28;20180;-70
2022/11/03 06:52:39;;;;;;;7.50;1.20;;;19.50;99.90;;;;;;5088819;28;20191;-70
2022/11/03 06:55:20;;;;;;;4.07;1.07;;;19.30;99.90;;;;;;5072802;28;20188;-71
2022/11/03 06:57:49;;;;;;;7.07;1.47;;;19.30;99.90;;;;;;5072656;28;20186;-69
2022/11/03 07:00:26;;;;;;;5.73;1.07;;;19.10;99.90;;;;;;5073500;28;20238;-69
2022/11/03 07:03:15;;;;;;;9.07;1.57;;;19.10;99.90;;;;;;5073558;28;20808;-69
2022/11/03 07:05:46;;;;;;;4.57;1.20;;;19.10;99.90;;;;;;5089120;28;20599;-68
2022/11/03 07:08:20;;;;;;;7.03;1.20;;;19.00;99.90;;;;;;5088626;28;20194;-69
2022/11/03 07:10:49;;;;;;;7.50;1.90;;;18.90;99.90;;;;;;5072950;28;20175;-69
2022/11/03 07:13:24;;;;;;;4.23;1.23;;;18.70;99.90;;;;;;5073398;28;20187;-69
2022/11/03 07:15:52;;;;;;;7.50;1.37;;;18.50;99.90;;;;;;5072901;28;20272;-69
2022/11/03 07:18:39;;;;;;;7.70;1.17;;;18.50;99.90;;;;;;5073157;28;20628;-69
2022/11/03 07:21:39;;;;;;;9.43;2.07;;;18.60;99.90;;;;;;5072853;28;20188;-69
2022/11/03 07:24:24;;;;;;;5.33;1.27;;;18.60;99.90;;;;;;5072816;28;20165;-68
2022/11/03 07:27:12;;;;;;;12.57;1.60;;;18.60;99.90;;;;;;5072863;28;21026;-69
2022/11/03 07:29:42;;;;;;;7.43;1.50;;;18.40;99.90;;;;;;5071534;28;20172;-70
2022/11/03 07:32:19;;;;;;;4.63;1.03;;;18.40;99.90;;;;;;5071483;28;20259;-69
2022/11/03 07:34:48;;;;;;;8.33;1.53;;;18.50;99.90;;;;;;5071372;28;20187;-69
2022/11/03 07:37:22;;;;;;;13.83;2.10;;;18.40;99.90;;;;;;5071121;28;20699;-68
2022/11/03 07:39:51;;;;;;;9.40;1.93;;;18.50;99.90;;;;;;5071329;28;20176;-68
2022/11/03 07:42:25;;;;;;;4.40;1.27;;;18.50;99.90;;;;;;5071141;28;20255;-69
2022/11/03 07:44:55;;;;;;;7.57;1.23;;;18.70;99.90;;;;;;5086789;28;20579;-69
2022/11/03 07:47:27;;;;;;;7.63;1.47;;;18.60;99.90;;;;;;5070380;28;20212;-69
2022/11/03 07:49:55;;;;;;;6.87;1.60;;;18.40;99.90;;;;;;5071034;28;20191;-69
2022/11/03 07:52:25;;;;;;;5.73;1.63;;;18.30;99.90;;;;;;5071363;28;20168;-69
2022/11/03 07:54:56;;;;;;;7.47;1.67;;;18.30;99.90;;;;;;5071715;28;20768;-69
2022/11/03 07:57:30;;;;;;;9.93;1.80;;;18.30;99.90;;;;;;5071216;28;20230;-72
2022/11/03 08:00:12;;;;;;;8.27;1.87;;;18.10;99.90;;;;;;5072469;28;20233;-69
2022/11/03 08:02:42;;;;;;;10.93;2.10;;;18.10;99.90;;;;;;5091211;28;20270;-69
2022/11/03 08:05:09;;;;;;;8.63;1.60;;;18.10;99.90;;;;;;5076111;28;20176;-69
2022/11/03 08:07:37;;;;;;;12.43;2.33;;;18.10;99.90;;;;;;5075051;28;20187;-69
2022/11/03 08:10:06;;;;;;;8.37;1.93;;;18.00;99.90;;;;;;5074948;28;20195;-69
2022/11/03 08:12:33;;;;;;;4.87;1.73;;;17.90;99.90;;;;;;5074816;28;20183;-70
2022/11/03 08:15:01;;;;;;;6.17;2.43;;;17.80;99.90;;;;;;5075467;28;20287;-69
2022/11/03 08:17:28;;;;;;;10.43;1.90;;;17.60;99.90;;;;;;5074651;28;20282;-70
2022/11/03 08:19:55;;;;;;;7.93;1.83;;;17.50;99.90;;;;;;5074879;28;20541;-69
2022/11/03 08:22:24;;;;;;;12.27;2.17;;;17.40;99.90;;;;;;5075386;28;20179;-69
2022/11/03 08:24:52;;;;;;;11.17;1.80;;;17.30;99.90;;;;;;5074954;28;20187;-70
2022/11/03 08:27:20;;;;;;;13.27;2.37;;;17.30;99.90;;;;;;5063491;28;20204;-70
2022/11/03 08:29:47;;;;;;;10.03;2.23;;;17.30;99.90;;;;;;5056984;28;20181;-70
2022/11/03 08:32:15;;;;;;;11.00;2.20;;;17.30;99.90;;;;;;5054486;28;20282;-69
2022/11/03 08:34:42;;;;;;;11.53;2.60;;;17.30;99.90;;;;;;5055048;28;20191;-69
2022/11/03 08:37:10;;;;;;;10.47;2.30;;;17.30;99.90;;;;;;5065222;28;20190;-69
2022/11/03 08:39:37;;;;;;;13.77;2.23;;;17.30;99.90;;;;;;5073873;28;20208;-69
2022/11/03 08:42:04;;;;;;;11.00;1.80;;;17.30;99.90;;;;;;5074403;28;20179;-71
2022/11/03 08:44:32;;;;;;;10.57;2.40;;;17.40;99.90;;;;;;5073715;28;20176;-68
2022/11/03 08:46:59;;;;;;;10.33;2.20;;;17.20;99.90;;;;;;5058148;28;20208;-71
2022/11/03 08:49:27;;;;;;;14.77;2.93;;;17.30;99.90;;;;;;5054299;28;20168;-70
2022/11/03 08:51:54;;;;;;;12.00;1.97;;;17.20;99.90;;;;;;5066405;28;20535;-70
2022/11/03 08:54:21;;;;;;;6.53;1.73;;;17.10;99.90;;;;;;5075505;28;20230;-70
2022/11/03 08:56:49;;;;;;;9.67;2.37;;;17.10;99.90;;;;;;5075556;28;20180;-69
2022/11/03 08:59:17;;;;;;;10.70;2.00;;;17.00;99.90;;;;;;5074959;28;20182;-71
2022/11/03 09:01:44;;;;;;;8.83;1.87;;;16.80;99.90;;;;;;5075894;28;20231;-69
2022/11/03 09:04:11;;;;;;;14.80;2.03;;;16.80;99.90;;;;;;5059196;28;20180;-69
2022/11/03 09:06:40;;;;;;;13.13;2.27;;;16.70;99.90;;;;;;5056048;28;20224;-70
2022/11/03 09:09:07;;;;;;;8.90;2.07;;;16.70;99.90;;;;;;5062469;28;20223;-70
2022/11/03 09:11:34;;;;;;;11.83;2.53;;;16.70;99.90;;;;;;5076204;28;20688;-70
2022/11/03 09:14:02;;;;;;;9.57;2.00;;;16.70;99.90;;;;;;5076152;28;20176;-70
2022/11/03 09:16:30;;;;;;;9.33;2.07;;;16.70;99.90;;;;;;5074450;28;20228;-69
2022/11/03 09:18:57;;;;;;;18.97;2.30;;;16.70;99.90;;;;;;5065245;28;20172;-69
2022/11/03 09:21:24;;;;;;;12.07;2.13;;;16.60;99.90;;;;;;5092503;28;20180;-69
2022/11/03 09:23:52;;;;;;;5.37;1.90;;;16.60;99.90;;;;;;5076070;28;20180;-69
2022/11/03 09:26:19;;;;;;;8.90;2.37;;;16.70;99.90;;;;;;5069509;28;20216;-70
2022/11/03 09:28:48;;;;;;;8.60;2.40;;;16.60;99.90;;;;;;5055651;28;20222;-69
2022/11/03 09:31:15;;;;;;;13.20;1.90;;;16.50;99.90;;;;;;5055389;28;20550;-67
2022/11/03 09:33:43;;;;;;;13.87;2.80;;;16.50;99.90;;;;;;5055981;28;20585;-68
2022/11/03 09:36:10;;;;;;;7.17;1.90;;;16.50;99.90;;;;;;5061550;28;20574;-69
2022/11/03 09:38:38;;;;;;;17.63;2.60;;;16.50;99.90;;;;;;5075707;28;20172;-68
2022/11/03 09:41:06;;;;;;;12.50;2.20;;;16.40;99.90;;;;;;5075190;28;20172;-68
2022/11/03 09:43:33;;;;;;;8.40;2.20;;;16.40;99.90;;;;;;5075249;28;20183;-68
2022/11/03 09:46:00;;;;;;;12.70;2.13;;;16.40;99.90;;;;;;5074472;28;20306;-69
2022/11/03 09:48:29;;;;;;;9.70;2.27;;;16.40;99.90;;;;;;5035516;28;20200;-70
2022/11/03 09:50:57;;;;;;;11.30;2.20;;;16.40;99.90;;;;;;5052713;28;20736;-69
2022/11/03 09:53:25;;;;;;;7.43;2.03;;;16.50;99.90;;;;;;5075025;28;20175;-69
2022/11/03 09:55:56;;;;;;;6.73;1.77;;;16.50;99.90;;;;;;5034015;28;20181;-70
2022/11/03 09:58:23;;;;;;;15.23;2.57;;;16.50;99.90;;;;;;5073184;28;20238;-69
2022/11/03 10:00:51;;;;;;;10.07;2.23;;;16.50;99.90;;;;;;5075417;28;20231;-69
2022/11/03 10:03:19;;;;;;;9.33;2.13;;;16.50;99.90;;;;;;5074977;28;20715;-69
2022/11/03 10:05:47;;;;;;;10.20;1.80;;;16.50;99.90;;;;;;5069795;28;20685;-69
2022/11/03 10:08:28;;;;;;;8.83;2.43;;;16.50;99.90;;;;;;5072460;28;20187;-69
2022/11/03 10:11:01;;;;;;;7.07;1.70;;;16.50;99.90;;;;;;5074742;28;20590;-70
2022/11/03 10:13:30;;;;;;;10.13;1.93;;;16.40;99.90;;;;;;5074685;28;20289;-69
2022/11/03 10:15:59;;;;;;;10.37;2.13;;;16.30;99.90;;;;;;5074954;28;20241;-69
2022/11/03 10:18:27;;;;;;;11.77;2.10;;;16.30;99.90;;;;;;5073889;28;20280;-69
2022/11/03 10:20:56;;;;;;;11.30;1.97;;;16.30;99.90;;;;;;5074359;28;20176;-69
2022/11/03 10:23:23;;;;;;;7.47;2.07;;;16.30;99.90;;;;;;5074159;28;20218;-69
2022/11/03 10:25:52;;;;;;;8.07;2.00;;;16.30;99.90;;;;;;5073998;28;20676;-69
2022/11/03 10:28:26;;;;;;;9.00;1.83;;;16.30;99.90;;;;;;5090345;28;20204;-68
2022/11/03 10:30:57;;;;;;;14.40;2.10;;;16.30;99.90;;;;;;5074391;28;20266;-69
2022/11/03 10:33:51;;;;;;;10.60;2.63;;;16.40;99.90;;;;;;5074462;28;20179;-69
2022/11/03 10:36:19;;;;;;;9.53;2.10;;;16.40;99.90;;;;;;5074403;28;20190;-68
2022/11/03 10:38:47;;;;;;;10.90;2.73;;;16.40;99.90;;;;;;5074697;28;20561;-69
2022/11/03 10:41:25;;;;;;;10.10;2.33;;;16.30;99.90;;;;;;5075003;28;20626;-68
2022/11/03 10:44:07;;;;;;;8.17;2.30;;;16.30;99.90;;;;;;5079148;28;20231;-69
2022/11/03 10:46:39;;;;;;;13.00;2.33;;;16.20;99.90;;;;;;5074860;28;20310;-69
2022/11/03 10:49:18;;;;;;;10.90;2.87;;;16.30;99.90;;;;;;5074429;28;20272;-69
2022/11/03 10:51:48;;;;;;;9.37;2.70;;;16.20;99.90;;;;;;5074579;28;20191;-69
2022/11/03 10:54:18;;;;;;;10.87;2.20;;;16.20;99.90;;;;;;5074382;28;20680;-69
2022/11/03 10:56:47;;;;;;;10.80;2.60;;;16.20;99.90;;;;;;5063575;28;20184;-70
2022/11/03 10:59:30;;;;;;;8.57;2.17;;;16.20;99.90;;;;;;5073699;28;20191;-69
2022/11/03 11:02:02;;;;;;;10.83;2.40;;;16.20;99.90;;;;;;5090198;28;20606;-68
2022/11/03 11:04:31;;;;;;;10.43;2.00;;;16.10;99.90;;;;;;5073142;28;20199;-69
2022/11/03 11:06:59;;;;;;;8.70;1.87;;;16.00;99.90;;;;;;5071353;28;20759;-69
2022/11/03 11:09:28;;;;;;;13.00;2.23;;;16.00;99.90;;;;;;5071631;28;20180;-69
2022/11/03 11:12:15;;;;;;;12.77;1.90;;;16.00;99.90;;;;;;5071596;28;20218;-69
2022/11/03 11:14:57;;;;;;;7.97;2.27;;;16.10;99.90;;;;;;5071373;28;20187;-68
2022/11/03 11:17:44;;;;;;;9.93;1.90;;;16.00;99.90;;;;;;5071398;28;20182;-68
2022/11/03 11:20:34;;;;;;;4.57;1.60;;;15.90;99.90;;;;;;5071565;28;20226;-68
2022/11/03 11:23:29;;;;;;;12.97;2.10;;;15.90;99.90;;;;;;5071461;28;20179;-69
2022/11/03 11:26:28;;;;;;;13.47;2.13;;;15.80;99.90;;;;;;5071210;28;20207;-69
2022/11/03 11:29:12;;;;;;;7.40;2.20;;;15.70;99.90;;;;;;5071347;28;20172;-68
2022/11/03 11:31:46;;;;;;;12.63;2.30;;;15.70;99.90;;;;;;5071143;28;20176;-69
2022/11/03 11:34:17;;;;;;;8.20;2.23;;;15.60;99.90;;;;;;5088642;28;20176;-69
2022/11/03 11:37:09;;;;;;;8.37;2.13;;;15.60;99.90;;;;;;5074886;28;20208;-69
2022/11/03 11:39:43;;;;;;;11.87;1.87;;;15.50;99.90;;;;;;5075114;28;20607;-68
2022/11/03 11:42:14;;;;;;;11.27;2.60;;;15.50;99.90;;;;;;5075021;28;20708;-68
2022/11/03 11:44:46;;;;;;;8.67;2.30;;;15.50;99.90;;;;;;5075384;28;20496;-68
2022/11/03 11:47:28;;;;;;;6.00;2.30;;;15.40;99.90;;;;;;5074508;28;20226;-69
2022/11/03 11:50:10;;;;;;;8.20;2.33;;;15.40;99.90;;;;;;5074803;28;20184;-69
2022/11/03 11:53:01;;;;;;;12.97;2.30;;;15.30;99.90;;;;;;5075025;28;20172;-70
2022/11/03 11:56:02;;;;;;;18.47;2.80;;;15.30;99.90;;;;;;5074837;28;20263;-69
2022/11/03 11:58:51;;;;;;;8.67;2.63;;;15.20;99.90;;;;;;5074999;28;20184;-69
2022/11/03 12:01:34;;;;;;;9.00;2.50;;;15.20;99.90;;;;;;5074706;28;20659;-69
2022/11/03 12:04:23;;;;;;;9.77;2.50;;;15.20;99.90;;;;;;5074928;28;20688;-70
2022/11/03 12:06:50;;;;;;;10.20;3.47;;;15.30;99.90;;;;;;5074242;28;20299;-70
2022/11/03 12:09:24;;;;;;;13.60;5.50;;;15.20;99.90;;;;;;5066920;28;20182;-70
2022/11/03 12:11:54;;;;;;;24.67;8.90;;;15.20;99.90;;;;;;5073617;28;20180;-69
2022/11/03 12:14:32;;;;;;;24.00;8.57;;;15.10;99.90;;;;;;5074562;28;20836;-70
2022/11/03 12:17:20;;;;;;;21.67;9.87;;;15.10;99.90;;;;;;5074353;28;20210;-70
2022/11/03 12:19:52;;;;;;;20.83;11.10;;;15.00;99.90;;;;;;5074254;28;20191;-69
2022/11/03 12:22:25;;;;;;;21.17;11.13;;;14.90;99.90;;;;;;5074352;28;20263;-69
2022/11/03 12:25:26;;;;;;;25.87;12.57;;;14.80;99.90;;;;;;5074388;28;20178;-69
2022/11/03 12:27:54;;;;;;;26.37;12.93;;;14.70;99.90;;;;;;5034317;28;20201;-69
2022/11/03 12:30:22;;;;;;;23.97;12.33;;;14.60;99.90;;;;;;5034319;28;20666;-69
2022/11/03 12:32:50;;;;;;;22.27;12.43;;;14.60;99.90;;;;;;5073869;28;20226;-69
2022/11/03 12:35:18;;;;;;;27.13;12.50;;;14.50;99.90;;;;;;5074346;28;20171;-69
2022/11/03 12:37:45;;;;;;;26.67;13.10;;;14.50;99.90;;;;;;5073987;28;20271;-69
2022/11/03 12:40:14;;;;;;;27.10;12.00;;;14.50;99.90;;;;;;5074051;28;20525;-69
2022/11/03 12:42:41;;;;;;;25.07;14.10;;;14.60;99.90;;;;;;5073903;28;20190;-69
2022/11/03 12:45:09;;;;;;;31.00;14.97;;;14.70;99.90;;;;;;5073322;28;20179;-69
2022/11/03 12:47:36;;;;;;;31.57;14.00;;;14.70;99.90;;;;;;5074021;28;20273;-68
2022/11/03 12:50:04;;;;;;;26.53;13.93;;;14.80;99.90;;;;;;5089424;28;20706;-69
2022/11/03 12:52:31;;;;;;;24.47;12.37;;;14.80;99.90;;;;;;5073626;28;20179;-69
2022/11/03 12:54:59;;;;;;;30.10;12.90;;;14.90;99.90;;;;;;5073900;28;20186;-69
2022/11/03 12:57:26;;;;;;;23.57;12.93;;;14.80;99.90;;;;;;5073857;28;20588;-70
2022/11/03 12:59:54;;;;;;;31.37;11.97;;;14.90;99.90;;;;;;5073725;28;20684;-71
2022/11/03 13:02:21;;;;;;;25.53;12.17;;;14.90;99.90;;;;;;5071942;28;20278;-70
2022/11/03 13:04:48;;;;;;;28.00;12.97;;;15.00;99.90;;;;;;5076369;28;20307;-71
2022/11/03 13:07:16;;;;;;;24.03;11.47;;;15.00;99.90;;;;;;5073184;28;20627;-70
2022/11/03 13:09:43;;;;;;;24.77;11.57;;;15.00;99.90;;;;;;5073157;28;20188;-70
2022/11/03 13:12:30;;;;;;;25.43;9.80;;;15.00;99.90;;;;;;5073498;28;20183;-71
2022/11/03 13:15:03;;;;;;;23.23;11.10;;;15.00;99.90;;;;;;5072078;28;20298;-71
2022/11/03 13:17:30;;;;;;;16.93;8.43;;;15.10;99.90;;;;;;5073371;28;20211;-70
2022/11/03 13:19:58;;;;;;;17.23;7.83;;;15.10;99.90;;;;;;5073364;28;20263;-70
2022/11/03 13:22:25;;;;;;;21.57;9.17;;;15.10;99.90;;;;;;5073285;28;20180;-71
2022/11/03 13:24:53;;;;;;;20.17;8.20;;;15.10;99.90;;;;;;5073016;28;20191;-70
2022/11/03 13:27:20;;;;;;;17.17;7.10;;;15.00;99.90;;;;;;5073303;28;20216;-70
2022/11/03 13:29:47;;;;;;;17.20;8.03;;;14.90;99.90;;;;;;5073191;28;20286;-70